• Join FlightAware (Why Join?)
  • Login
  • US Flag 
10:44PM EDT


 

Airport Tracker/Info


-or-


 

Live Flight TrackerFlight Track Log ✈ EGF4446 ✈ 11-Jun-2013 ✈ KDCA - KJFK

Flight Track Log - Related Links

Times and Time Zones

All times are in EDT time to prevent confusion due to time zone crossing. See the EGF4446 flight status page for this flight to view local times or setup timezone preferences in your user account.

Time Position Orientation Groundspeed Altitude Reporting Facility
EDT Latitude Longitude Course Direction KTS MPH feet Rate Location/Type
06:18AM 38.8192 -77.0358 74° East 158 182 1,100  Level Washington Center
06:19AM 38.7631 -77.0294 175° South 184 212 3,000 1,740 Climbing Washington Center
06:20AM 38.9224 -76.7220 57° Northeast  Level FlightAware Approximate
06:20AM 38.7453 -76.9519 106° East 179 206 4,700  Level Washington Center
06:21AM 38.9567 -76.6181 70° East  Level FlightAware Approximate
06:21AM 38.8022 -76.8783 45° Northeast 176 203 7,100  Level Washington Center
06:22AM 38.9847 -76.5105 74° East  Level FlightAware Approximate
06:22AM 38.8592 -76.8100 43° Northeast 230 265 10,100  Level Washington Center
06:23AM 39.0090 -76.4014 74° East  Level FlightAware Approximate
06:23AM 38.9142 -76.7389 45° Northeast 255 293 12,300  Level Washington Center
06:24AM 38.9442 -76.6431 68° East 272 313 14,600 1,680 Climbing Washington Center
06:25AM 38.9742 -76.5369 70° East 287 330 15,800 660 Climbing Washington Center
06:26AM 39.0086 -76.4169 70° East 321 369 16,000 60 Climbing Washington Center
06:27AM 39.0322 -76.2783 78° East 356 410 16,000 300 Level Washington Center
06:28AM 39.0414 -76.1394 85° East 385 443 16,700 480 Climbing Washington Center
06:29AM 39.0481 -76.0058 86° East 385 443 17,000 120 Climbing Washington Center
06:30AM 39.0547 -75.8694 86° East 385 443 17,000  Level Washington Center
06:31AM 39.0592 -75.7253 88° East 385 443 17,000  Level Washington Center
06:32AM 39.0633 -75.5969 88° East 390 449 17,000  Level Washington Center
06:33AM 39.0694 -75.4553 87° East 390 449 17,000  Level Washington Center
06:35AM 39.1256 -75.1975 74° East 415 478 17,000  Level New York Center
06:36AM 39.1925 -75.0811 53° Northeast 401 461 17,000  Level New York Center
06:37AM 39.2572 -74.9617 55° Northeast 401 461 17,000  Level New York Center
06:38AM 39.3219 -74.8394 56° Northeast 401 461 17,000  Level New York Center
06:39AM 39.3933 -74.7036 56° Northeast 411 473 17,000  Level New York Center
06:40AM 39.4558 -74.5808 57° Northeast 411 473 17,000  Level New York Center
06:41AM 39.5225 -74.4553 55° Northeast 411 473 17,100  Climbing New York Center
06:42AM 39.5822 -74.3453 55° Northeast 411 473 17,100 -420 Level New York Center
06:43AM 39.6550 -74.2086 55° Northeast 411 473 16,300 -1,200 Descending New York Center
06:44AM 39.7350 -74.1047 45° Northeast 405 466 14,700 -1,620 Descending New York Center
06:45AM 39.8189 -74.0142 40° Northeast 392 451 13,100 -1,680 Descending New York Center
06:46AM 39.9000 -73.9475 32° Northeast 392 451 11,500 -1,140 Descending New York Center
06:47AM 39.9831 -73.8808 32° Northeast 368 423 10,900 -360 Descending New York Center
06:48AM 40.0703 -73.8142 30° Northeast 336 387 10,800 -660 Descending New York Center
06:49AM 40.1333 -73.7667 30° Northeast 317 365 9,800 -1,320 Descending New York TRACON
06:50AM 40.2167 -73.6833 37° Northeast 309 356 8,200 -1,380 Descending New York TRACON
06:51AM 40.2833 -73.6500 21° North 301 346 7,000 -1,500 Descending New York TRACON
06:52AM 40.3628 -73.6147 19° North 294 338 5,300 -1,440 Descending New York Center
06:53AM 40.4500 -73.5500 29° Northeast 288 331 4,100 -840 Descending New York TRACON
06:54AM 40.5167 -73.5333 11° North 277 319 3,700 -540 Descending New York TRACON
06:55AM 40.5833 -73.5000 21° North 270 311 3,100 -300 Descending New York TRACON
06:56AM 40.6667 -73.4833 North 264 304 3,100 -60 Level New York TRACON
06:57AM 40.7167 -73.4667 14° North 249 287 3,000 -540 Descending New York TRACON
06:58AM 40.7667 -73.5167 323° Northwest 187 215 2,100 -480 Descending New York TRACON
06:59AM 40.7833 -73.5833 288° West 165 190 2,100  Level New York TRACON
07:00AM 40.7500 -73.6333 229° Southwest 172 198 2,100  Level New York TRACON